CMB823 Details

Departure: Patrick Air Force Base (KCOF)
Arrival: Grantley Adams International Airport (TBPB) at N/A
Route: TEDAE VENDS BRRGO BR1L GTK L452 BQN RTE4 COY A555 BG
Notes: USTRANSCOM CONTRACT FLIGHT


Current Weather Information
KCOF 251056Z AUTO 02005KT 10SM FEW013 BKN023 27/27 A2991 RMK AO2 SLP133 T02660266 $
TBPB 251100Z 10016KT 9999 FEW018 29/23 Q1015 NOSIG